createdAt,value
2017-11-29T00:01:27.668Z,63.4
2017-11-29T00:11:25.745Z,56.4
2017-11-29T00:21:27.467Z,52.4
2017-11-29T00:31:25.570Z,52.7
2017-11-29T00:41:26.204Z,65.3
2017-11-29T00:51:27.903Z,65.0
2017-11-29T01:01:26.385Z,62.3
2017-11-29T01:11:26.143Z,64.3
2017-11-29T01:21:25.688Z,63.0
2017-11-29T01:31:27.966Z,61.6
2017-11-29T01:41:26.188Z,62.6
2017-11-29T01:51:27.307Z,60.7
2017-11-29T02:01:26.649Z,60.3
2017-11-29T02:11:26.385Z,59.3
2017-11-29T02:21:26.448Z,55.4
2017-11-29T02:31:26.605Z,54.1
2017-11-29T02:41:25.835Z,55.4
2017-11-29T02:51:26.321Z,51.9
2017-11-29T03:01:25.708Z,37.1
2017-11-29T03:11:27.254Z,23.0
2017-11-29T03:21:25.955Z,21.0
2017-11-29T03:31:26.324Z,19.5
2017-11-29T03:41:25.737Z,20.9
2017-11-29T03:51:26.546Z,19.9
2017-11-29T04:01:26.324Z,19.2
2017-11-29T04:11:25.460Z,21.4
2017-11-29T04:21:26.404Z,23.8
2017-11-29T04:31:25.528Z,25.0
2017-11-29T04:41:26.456Z,23.9
2017-11-29T04:51:26.159Z,24.6
2017-11-29T05:01:27.488Z,26.8
2017-11-29T05:11:34.500Z,28.8
2017-11-29T05:21:25.853Z,28.9
2017-11-29T05:31:25.769Z,32.6
2017-11-29T05:41:27.223Z,35.0
2017-11-29T05:51:27.734Z,35.9
2017-11-29T06:01:26.935Z,35.5
2017-11-29T06:11:26.437Z,36.1
2017-11-29T06:21:27.180Z,34.5
2017-11-29T06:31:27.145Z,33.5
2017-11-29T06:41:26.345Z,34.3
2017-11-29T06:51:25.984Z,35.0
2017-11-29T07:01:26.507Z,34.2
2017-11-29T07:11:27.292Z,34.5
2017-11-29T07:21:28.045Z,36.0
2017-11-29T07:31:26.153Z,40.5
2017-11-29T07:41:27.340Z,40.1
2017-11-29T07:51:26.643Z,40.5
2017-11-29T08:01:25.889Z,42.4
2017-11-29T08:11:26.832Z,38.5
2017-11-29T08:21:27.625Z,36.2
2017-11-29T08:31:25.993Z,34.4
2017-11-29T08:41:26.374Z,36.5
2017-11-29T08:51:25.688Z,34.2
2017-11-29T09:01:26.419Z,29.1
2017-11-29T09:11:26.205Z,31.6
2017-11-29T09:21:25.814Z,30.1
2017-11-29T09:31:27.557Z,32.0
2017-11-29T09:41:29.112Z,29.5
2017-11-29T09:51:26.508Z,38.0
2017-11-29T10:01:26.009Z,36.8
2017-11-29T10:11:26.518Z,32.5
2017-11-29T10:21:28.479Z,32.3
2017-11-29T10:31:27.844Z,31.3
2017-11-29T10:41:26.362Z,32.4
2017-11-29T10:51:26.665Z,32.6
2017-11-29T11:01:25.771Z,34.0
2017-11-29T11:11:26.768Z,34.3
2017-11-29T11:21:26.741Z,36.8
2017-11-29T11:31:25.845Z,37.1
2017-11-29T11:41:29.522Z,36.6
2017-11-29T11:51:25.743Z,38.6
2017-11-29T12:01:26.983Z,37.2
2017-11-29T12:11:26.259Z,37.7
2017-11-29T12:21:28.981Z,42.9
2017-11-29T12:31:27.431Z,44.9
2017-11-29T12:41:25.549Z,45.3
2017-11-29T12:51:27.992Z,51.4
2017-11-29T13:01:26.222Z,47.6
2017-11-29T13:11:28.901Z,49.6
2017-11-29T13:21:26.532Z,45.9
2017-11-29T13:31:26.096Z,45.7
2017-11-29T13:41:26.357Z,39.9
2017-11-29T13:51:26.008Z,42.7
2017-11-29T14:01:26.788Z,38.2
2017-11-29T14:11:27.368Z,43.6
2017-11-29T14:21:26.720Z,42.7
2017-11-29T14:31:27.249Z,42.1
2017-11-29T14:41:26.425Z,42.3
2017-11-29T14:51:26.092Z,41.3
2017-11-29T15:01:26.159Z,43.6
2017-11-29T15:11:27.443Z,52.0
2017-11-29T15:21:26.000Z,55.8
2017-11-29T15:31:26.651Z,63.2
2017-11-29T15:41:28.380Z,65.1
2017-11-29T15:51:25.905Z,65.5
2017-11-29T16:01:27.814Z,54.0
2017-11-29T16:11:26.156Z,51.8
2017-11-29T16:21:25.524Z,51.1
2017-11-29T16:31:26.547Z,58.3
2017-11-29T16:41:29.684Z,60.1
2017-11-29T16:51:26.014Z,65.4
2017-11-29T17:01:26.789Z,60.5
2017-11-29T17:11:27.855Z,58.4
2017-11-29T17:21:26.093Z,60.6
2017-11-29T17:31:27.123Z,62.4
2017-11-29T17:41:26.303Z,61.1
2017-11-29T17:51:25.678Z,64.2
2017-11-29T18:01:26.734Z,68.7
2017-11-29T18:11:26.217Z,83.8
2017-11-29T18:21:25.504Z,76.3
2017-11-29T18:31:26.738Z,74.3
2017-11-29T18:41:26.655Z,75.6
2017-11-29T18:51:26.077Z,72.8
2017-11-29T19:01:26.628Z,78.4
2017-11-29T19:11:26.046Z,82.3
2017-11-29T19:21:26.354Z,76.7
2017-11-29T19:31:26.633Z,78.9
2017-11-29T19:41:27.060Z,77.3
2017-11-29T19:51:26.503Z,76.8
2017-11-29T20:01:25.861Z,84.1
2017-11-29T20:11:26.471Z,82.5
2017-11-29T20:21:27.359Z,79.3
2017-11-29T20:31:26.555Z,85.1
2017-11-29T20:41:28.170Z,87.9
2017-11-29T20:51:27.832Z,88.7
2017-11-29T21:01:29.448Z,89.0
2017-11-29T21:11:26.047Z,84.2
2017-11-29T21:21:27.357Z,81.0
2017-11-29T21:31:26.069Z,77.9
2017-11-29T21:41:26.800Z,74.6
2017-11-29T21:51:25.885Z,75.9
2017-11-29T22:01:28.497Z,71.5
2017-11-29T22:11:28.074Z,69.3
2017-11-29T22:21:28.520Z,70.1
2017-11-29T22:31:27.172Z,73.5
2017-11-29T22:41:27.803Z,71.1
2017-11-29T22:51:28.419Z,69.3
2017-11-29T23:01:27.784Z,68.0
2017-11-29T23:11:26.235Z,64.4
2017-11-29T23:21:32.953Z,65.8
2017-11-29T23:31:33.683Z,67.2
2017-11-29T23:41:26.414Z,58.9
2017-11-29T23:51:25.517Z,60.8
